sensor_id;sensor_type;location;lat;lon;timestamp;P1;durP1;ratioP1;P2;durP2;ratioP2
67585;SDS011;55785;47.946;20.540;2023-12-20T00:00:54;5.17;;;2.87;;
67585;SDS011;55785;47.946;20.540;2023-12-20T00:03:20;3.60;;;2.47;;
67585;SDS011;55785;47.946;20.540;2023-12-20T00:05:45;3.97;;;2.20;;
67585;SDS011;55785;47.946;20.540;2023-12-20T00:08:12;6.27;;;2.90;;
67585;SDS011;55785;47.946;20.540;2023-12-20T00:10:37;4.50;;;2.77;;
67585;SDS011;55785;47.946;20.540;2023-12-20T00:13:03;4.33;;;2.40;;
67585;SDS011;55785;47.946;20.540;2023-12-20T00:15:28;4.30;;;2.90;;
67585;SDS011;55785;47.946;20.540;2023-12-20T00:17:53;4.00;;;2.70;;
67585;SDS011;55785;47.946;20.540;2023-12-20T00:20:19;4.23;;;2.53;;
67585;SDS011;55785;47.946;20.540;2023-12-20T00:22:44;3.17;;;2.77;;
67585;SDS011;55785;47.946;20.540;2023-12-20T00:25:09;4.37;;;2.87;;
67585;SDS011;55785;47.946;20.540;2023-12-20T00:27:35;4.10;;;2.83;;
67585;SDS011;55785;47.946;20.540;2023-12-20T00:30:00;2.43;;;1.80;;
67585;SDS011;55785;47.946;20.540;2023-12-20T00:32:25;3.10;;;2.47;;
67585;SDS011;55785;47.946;20.540;2023-12-20T00:34:51;6.07;;;2.70;;
67585;SDS011;55785;47.946;20.540;2023-12-20T00:37:16;4.17;;;2.70;;
67585;SDS011;55785;47.946;20.540;2023-12-20T00:39:41;3.93;;;3.07;;
67585;SDS011;55785;47.946;20.540;2023-12-20T00:42:07;6.57;;;2.97;;
67585;SDS011;55785;47.946;20.540;2023-12-20T00:44:32;4.30;;;2.87;;
67585;SDS011;55785;47.946;20.540;2023-12-20T00:46:58;3.77;;;3.17;;
67585;SDS011;55785;47.946;20.540;2023-12-20T00:49:23;4.13;;;2.73;;
67585;SDS011;55785;47.946;20.540;2023-12-20T00:51:48;3.40;;;2.03;;
67585;SDS011;55785;47.946;20.540;2023-12-20T00:54:14;6.40;;;3.10;;
67585;SDS011;55785;47.946;20.540;2023-12-20T00:56:39;3.03;;;2.50;;
67585;SDS011;55785;47.946;20.540;2023-12-20T00:59:04;3.13;;;2.03;;
67585;SDS011;55785;47.946;20.540;2023-12-20T01:01:30;3.67;;;2.37;;
67585;SDS011;55785;47.946;20.540;2023-12-20T01:03:55;3.00;;;2.53;;
67585;SDS011;55785;47.946;20.540;2023-12-20T01:06:20;4.07;;;2.90;;
67585;SDS011;55785;47.946;20.540;2023-12-20T01:08:46;3.07;;;2.57;;
67585;SDS011;55785;47.946;20.540;2023-12-20T01:11:11;4.10;;;1.90;;
67585;SDS011;55785;47.946;20.540;2023-12-20T01:13:36;4.70;;;2.30;;
67585;SDS011;55785;47.946;20.540;2023-12-20T01:16:02;2.93;;;2.60;;
67585;SDS011;55785;47.946;20.540;2023-12-20T01:18:27;4.37;;;2.53;;
67585;SDS011;55785;47.946;20.540;2023-12-20T01:20:53;5.93;;;3.23;;
67585;SDS011;55785;47.946;20.540;2023-12-20T01:23:18;3.20;;;2.23;;
67585;SDS011;55785;47.946;20.540;2023-12-20T01:25:43;5.83;;;3.33;;
67585;SDS011;55785;47.946;20.540;2023-12-20T01:28:09;3.37;;;2.53;;
67585;SDS011;55785;47.946;20.540;2023-12-20T01:30:34;4.23;;;3.17;;
67585;SDS011;55785;47.946;20.540;2023-12-20T01:33:00;3.53;;;2.60;;
67585;SDS011;55785;47.946;20.540;2023-12-20T01:35:25;4.63;;;2.27;;
67585;SDS011;55785;47.946;20.540;2023-12-20T01:37:51;3.67;;;3.13;;
67585;SDS011;55785;47.946;20.540;2023-12-20T01:40:16;4.13;;;3.10;;
67585;SDS011;55785;47.946;20.540;2023-12-20T01:42:41;2.30;;;2.10;;
67585;SDS011;55785;47.946;20.540;2023-12-20T01:45:07;4.07;;;3.00;;
67585;SDS011;55785;47.946;20.540;2023-12-20T01:47:33;4.50;;;3.50;;
67585;SDS011;55785;47.946;20.540;2023-12-20T01:49:58;2.93;;;2.03;;
67585;SDS011;55785;47.946;20.540;2023-12-20T01:52:23;4.00;;;2.40;;
67585;SDS011;55785;47.946;20.540;2023-12-20T01:54:51;2.37;;;2.13;;
67585;SDS011;55785;47.946;20.540;2023-12-20T01:57:16;4.80;;;3.33;;
67585;SDS011;55785;47.946;20.540;2023-12-20T01:59:42;3.83;;;2.80;;
67585;SDS011;55785;47.946;20.540;2023-12-20T02:02:08;2.90;;;2.53;;
67585;SDS011;55785;47.946;20.540;2023-12-20T02:04:33;3.33;;;2.50;;
67585;SDS011;55785;47.946;20.540;2023-12-20T02:06:59;2.87;;;2.23;;
67585;SDS011;55785;47.946;20.540;2023-12-20T02:09:24;3.53;;;2.87;;
67585;SDS011;55785;47.946;20.540;2023-12-20T02:11:50;2.87;;;2.63;;
67585;SDS011;55785;47.946;20.540;2023-12-20T02:14:15;2.17;;;1.97;;
67585;SDS011;55785;47.946;20.540;2023-12-20T02:16:41;6.53;;;2.60;;
67585;SDS011;55785;47.946;20.540;2023-12-20T02:19:07;6.43;;;3.10;;
67585;SDS011;55785;47.946;20.540;2023-12-20T02:21:39;6.20;;;3.23;;
67585;SDS011;55785;47.946;20.540;2023-12-20T02:24:04;3.93;;;2.63;;
67585;SDS011;55785;47.946;20.540;2023-12-20T02:26:31;5.00;;;3.17;;
67585;SDS011;55785;47.946;20.540;2023-12-20T02:28:58;1.93;;;1.53;;
67585;SDS011;55785;47.946;20.540;2023-12-20T02:31:23;3.63;;;2.40;;
67585;SDS011;55785;47.946;20.540;2023-12-20T02:33:49;6.40;;;2.70;;
67585;SDS011;55785;47.946;20.540;2023-12-20T02:36:14;3.77;;;2.33;;
67585;SDS011;55785;47.946;20.540;2023-12-20T02:38:39;4.60;;;2.43;;
67585;SDS011;55785;47.946;20.540;2023-12-20T02:41:05;4.30;;;2.00;;
67585;SDS011;55785;47.946;20.540;2023-12-20T02:43:30;1.27;;;1.17;;
67585;SDS011;55785;47.946;20.540;2023-12-20T02:45:55;1.87;;;1.37;;
67585;SDS011;55785;47.946;20.540;2023-12-20T02:48:21;2.23;;;1.83;;
67585;SDS011;55785;47.946;20.540;2023-12-20T02:50:47;2.80;;;2.30;;
67585;SDS011;55785;47.946;20.540;2023-12-20T02:53:13;6.33;;;2.50;;
67585;SDS011;55785;47.946;20.540;2023-12-20T02:55:38;3.53;;;2.47;;
67585;SDS011;55785;47.946;20.540;2023-12-20T02:58:04;3.23;;;2.13;;
67585;SDS011;55785;47.946;20.540;2023-12-20T03:00:29;2.67;;;1.57;;
67585;SDS011;55785;47.946;20.540;2023-12-20T03:02:54;2.57;;;2.10;;
67585;SDS011;55785;47.946;20.540;2023-12-20T03:05:20;3.80;;;2.87;;
67585;SDS011;55785;47.946;20.540;2023-12-20T03:07:45;2.73;;;1.93;;
67585;SDS011;55785;47.946;20.540;2023-12-20T03:10:11;5.27;;;2.60;;
67585;SDS011;55785;47.946;20.540;2023-12-20T03:12:36;3.70;;;2.70;;
67585;SDS011;55785;47.946;20.540;2023-12-20T03:15:01;5.20;;;3.17;;
67585;SDS011;55785;47.946;20.540;2023-12-20T03:17:27;2.13;;;1.93;;
67585;SDS011;55785;47.946;20.540;2023-12-20T03:19:52;6.80;;;3.47;;
67585;SDS011;55785;47.946;20.540;2023-12-20T03:22:18;5.40;;;2.93;;
67585;SDS011;55785;47.946;20.540;2023-12-20T03:24:43;8.13;;;3.07;;
67585;SDS011;55785;47.946;20.540;2023-12-20T03:27:08;4.57;;;2.93;;
67585;SDS011;55785;47.946;20.540;2023-12-20T03:29:34;1.47;;;1.37;;
67585;SDS011;55785;47.946;20.540;2023-12-20T03:31:59;4.17;;;2.63;;
67585;SDS011;55785;47.946;20.540;2023-12-20T03:34:24;3.07;;;1.97;;
67585;SDS011;55785;47.946;20.540;2023-12-20T03:36:50;4.90;;;3.33;;
67585;SDS011;55785;47.946;20.540;2023-12-20T03:39:15;3.30;;;1.83;;
67585;SDS011;55785;47.946;20.540;2023-12-20T03:41:40;5.23;;;2.17;;
67585;SDS011;55785;47.946;20.540;2023-12-20T03:44:06;3.87;;;2.77;;
67585;SDS011;55785;47.946;20.540;2023-12-20T03:46:31;3.63;;;2.73;;
67585;SDS011;55785;47.946;20.540;2023-12-20T03:48:56;1.90;;;1.70;;
67585;SDS011;55785;47.946;20.540;2023-12-20T03:51:22;1.80;;;1.70;;
67585;SDS011;55785;47.946;20.540;2023-12-20T03:53:47;3.77;;;2.27;;
67585;SDS011;55785;47.946;20.540;2023-12-20T03:56:13;3.40;;;1.90;;
67585;SDS011;55785;47.946;20.540;2023-12-20T03:58:38;4.13;;;2.50;;
67585;SDS011;55785;47.946;20.540;2023-12-20T04:01:03;4.70;;;1.47;;
67585;SDS011;55785;47.946;20.540;2023-12-20T04:03:34;3.07;;;2.23;;
67585;SDS011;55785;47.946;20.540;2023-12-20T04:05:59;2.73;;;2.03;;
67585;SDS011;55785;47.946;20.540;2023-12-20T04:08:25;4.03;;;2.50;;
67585;SDS011;55785;47.946;20.540;2023-12-20T04:10:50;3.80;;;2.20;;
67585;SDS011;55785;47.946;20.540;2023-12-20T04:13:15;2.87;;;2.50;;
67585;SDS011;55785;47.946;20.540;2023-12-20T04:15:41;3.27;;;2.10;;
67585;SDS011;55785;47.946;20.540;2023-12-20T04:18:06;2.57;;;2.00;;
67585;SDS011;55785;47.946;20.540;2023-12-20T04:20:31;5.73;;;2.53;;
67585;SDS011;55785;47.946;20.540;2023-12-20T04:22:57;4.10;;;2.03;;
67585;SDS011;55785;47.946;20.540;2023-12-20T04:25:22;2.50;;;1.83;;
67585;SDS011;55785;47.946;20.540;2023-12-20T04:27:47;3.20;;;1.53;;
67585;SDS011;55785;47.946;20.540;2023-12-20T04:30:13;2.33;;;1.70;;
67585;SDS011;55785;47.946;20.540;2023-12-20T04:32:38;5.53;;;3.47;;
67585;SDS011;55785;47.946;20.540;2023-12-20T04:35:04;2.20;;;1.97;;
67585;SDS011;55785;47.946;20.540;2023-12-20T04:37:29;3.60;;;2.70;;
67585;SDS011;55785;47.946;20.540;2023-12-20T04:39:55;6.60;;;2.77;;
67585;SDS011;55785;47.946;20.540;2023-12-20T04:42:20;2.50;;;1.90;;
67585;SDS011;55785;47.946;20.540;2023-12-20T04:44:45;3.57;;;1.87;;
67585;SDS011;55785;47.946;20.540;2023-12-20T04:47:11;4.10;;;2.80;;
67585;SDS011;55785;47.946;20.540;2023-12-20T04:49:36;2.90;;;2.43;;
67585;SDS011;55785;47.946;20.540;2023-12-20T04:52:01;4.87;;;3.00;;
67585;SDS011;55785;47.946;20.540;2023-12-20T04:54:27;4.57;;;2.70;;
67585;SDS011;55785;47.946;20.540;2023-12-20T04:56:52;2.47;;;2.27;;
67585;SDS011;55785;47.946;20.540;2023-12-20T04:59:18;2.77;;;1.73;;
67585;SDS011;55785;47.946;20.540;2023-12-20T05:01:43;2.87;;;1.93;;
67585;SDS011;55785;47.946;20.540;2023-12-20T05:04:08;4.53;;;2.73;;
67585;SDS011;55785;47.946;20.540;2023-12-20T05:06:34;3.83;;;2.20;;
67585;SDS011;55785;47.946;20.540;2023-12-20T05:08:59;3.93;;;2.60;;
67585;SDS011;55785;47.946;20.540;2023-12-20T05:11:24;3.60;;;2.40;;
67585;SDS011;55785;47.946;20.540;2023-12-20T05:13:50;3.33;;;2.17;;
67585;SDS011;55785;47.946;20.540;2023-12-20T05:16:15;2.60;;;1.93;;
67585;SDS011;55785;47.946;20.540;2023-12-20T05:18:40;3.57;;;2.10;;
67585;SDS011;55785;47.946;20.540;2023-12-20T05:21:06;1.73;;;1.50;;
67585;SDS011;55785;47.946;20.540;2023-12-20T05:23:31;2.57;;;2.37;;
67585;SDS011;55785;47.946;20.540;2023-12-20T05:25:57;3.40;;;2.23;;
67585;SDS011;55785;47.946;20.540;2023-12-20T05:28:22;3.23;;;2.20;;
67585;SDS011;55785;47.946;20.540;2023-12-20T05:30:47;2.10;;;1.93;;
67585;SDS011;55785;47.946;20.540;2023-12-20T05:33:13;3.33;;;2.40;;
67585;SDS011;55785;47.946;20.540;2023-12-20T05:35:38;3.97;;;2.87;;
67585;SDS011;55785;47.946;20.540;2023-12-20T05:38:03;3.93;;;2.73;;
67585;SDS011;55785;47.946;20.540;2023-12-20T05:40:29;2.77;;;2.47;;
67585;SDS011;55785;47.946;20.540;2023-12-20T05:42:54;3.87;;;2.70;;
67585;SDS011;55785;47.946;20.540;2023-12-20T05:45:20;3.03;;;2.10;;
67585;SDS011;55785;47.946;20.540;2023-12-20T05:47:45;3.17;;;2.30;;
67585;SDS011;55785;47.946;20.540;2023-12-20T05:50:10;2.17;;;1.97;;
67585;SDS011;55785;47.946;20.540;2023-12-20T05:52:36;2.20;;;2.00;;
67585;SDS011;55785;47.946;20.540;2023-12-20T05:55:01;3.87;;;2.30;;
67585;SDS011;55785;47.946;20.540;2023-12-20T05:57:27;3.37;;;1.83;;
67585;SDS011;55785;47.946;20.540;2023-12-20T05:59:52;2.40;;;1.70;;
67585;SDS011;55785;47.946;20.540;2023-12-20T06:02:18;1.37;;;1.27;;
67585;SDS011;55785;47.946;20.540;2023-12-20T06:04:43;1.10;;;1.00;;
67585;SDS011;55785;47.946;20.540;2023-12-20T06:07:12;3.73;;;2.13;;
67585;SDS011;55785;47.946;20.540;2023-12-20T06:09:38;2.10;;;1.80;;
67585;SDS011;55785;47.946;20.540;2023-12-20T06:12:03;4.30;;;2.30;;
67585;SDS011;55785;47.946;20.540;2023-12-20T06:14:29;9.93;;;2.57;;
67585;SDS011;55785;47.946;20.540;2023-12-20T06:16:55;2.67;;;2.37;;
67585;SDS011;55785;47.946;20.540;2023-12-20T06:19:20;3.40;;;2.27;;
67585;SDS011;55785;47.946;20.540;2023-12-20T06:21:45;3.80;;;2.43;;
67585;SDS011;55785;47.946;20.540;2023-12-20T06:24:11;2.77;;;2.00;;
67585;SDS011;55785;47.946;20.540;2023-12-20T06:26:36;1.40;;;1.17;;
67585;SDS011;55785;47.946;20.540;2023-12-20T06:29:01;4.07;;;2.00;;
67585;SDS011;55785;47.946;20.540;2023-12-20T06:31:27;5.57;;;2.07;;
67585;SDS011;55785;47.946;20.540;2023-12-20T06:33:52;2.37;;;1.80;;
67585;SDS011;55785;47.946;20.540;2023-12-20T06:36:17;2.37;;;2.17;;
67585;SDS011;55785;47.946;20.540;2023-12-20T06:38:43;1.50;;;1.37;;
67585;SDS011;55785;47.946;20.540;2023-12-20T06:41:08;3.83;;;2.93;;
67585;SDS011;55785;47.946;20.540;2023-12-20T06:43:33;3.37;;;3.00;;
67585;SDS011;55785;47.946;20.540;2023-12-20T06:46:02;4.43;;;3.23;;
67585;SDS011;55785;47.946;20.540;2023-12-20T06:48:27;3.37;;;2.63;;
67585;SDS011;55785;47.946;20.540;2023-12-20T06:50:53;5.77;;;2.60;;
67585;SDS011;55785;47.946;20.540;2023-12-20T06:53:21;2.67;;;2.40;;
67585;SDS011;55785;47.946;20.540;2023-12-20T06:55:47;1.53;;;1.43;;
67585;SDS011;55785;47.946;20.540;2023-12-20T06:58:12;5.67;;;3.73;;
67585;SDS011;55785;47.946;20.540;2023-12-20T07:00:37;6.37;;;3.60;;
67585;SDS011;55785;47.946;20.540;2023-12-20T07:03:03;5.73;;;4.00;;
67585;SDS011;55785;47.946;20.540;2023-12-20T07:05:28;4.23;;;3.33;;
67585;SDS011;55785;47.946;20.540;2023-12-20T07:07:53;7.47;;;3.57;;
67585;SDS011;55785;47.946;20.540;2023-12-20T07:10:19;2.57;;;2.37;;
67585;SDS011;55785;47.946;20.540;2023-12-20T07:12:44;3.00;;;2.43;;
67585;SDS011;55785;47.946;20.540;2023-12-20T07:15:10;6.57;;;3.67;;
67585;SDS011;55785;47.946;20.540;2023-12-20T07:17:35;2.63;;;2.40;;
67585;SDS011;55785;47.946;20.540;2023-12-20T07:20:01;3.60;;;2.03;;
67585;SDS011;55785;47.946;20.540;2023-12-20T07:22:27;2.20;;;1.90;;
67585;SDS011;55785;47.946;20.540;2023-12-20T07:24:52;6.23;;;3.43;;
67585;SDS011;55785;47.946;20.540;2023-12-20T07:27:17;1.80;;;1.70;;
67585;SDS011;55785;47.946;20.540;2023-12-20T07:29:43;2.80;;;1.73;;
67585;SDS011;55785;47.946;20.540;2023-12-20T07:32:08;4.37;;;3.40;;
67585;SDS011;55785;47.946;20.540;2023-12-20T07:34:33;4.67;;;3.07;;
67585;SDS011;55785;47.946;20.540;2023-12-20T07:36:59;4.07;;;2.27;;
67585;SDS011;55785;47.946;20.540;2023-12-20T07:39:24;2.57;;;2.37;;
67585;SDS011;55785;47.946;20.540;2023-12-20T07:41:49;7.77;;;3.57;;
67585;SDS011;55785;47.946;20.540;2023-12-20T07:44:15;4.77;;;3.17;;
67585;SDS011;55785;47.946;20.540;2023-12-20T07:46:40;3.23;;;2.43;;
67585;SDS011;55785;47.946;20.540;2023-12-20T07:49:06;7.60;;;3.00;;
67585;SDS011;55785;47.946;20.540;2023-12-20T07:51:34;4.97;;;3.33;;
67585;SDS011;55785;47.946;20.540;2023-12-20T07:53:59;4.13;;;2.20;;
67585;SDS011;55785;47.946;20.540;2023-12-20T07:56:24;7.13;;;2.73;;
67585;SDS011;55785;47.946;20.540;2023-12-20T07:58:50;3.83;;;2.90;;
67585;SDS011;55785;47.946;20.540;2023-12-20T08:01:15;4.93;;;2.20;;
67585;SDS011;55785;47.946;20.540;2023-12-20T08:03:41;3.60;;;2.90;;
67585;SDS011;55785;47.946;20.540;2023-12-20T08:06:06;5.90;;;3.87;;
67585;SDS011;55785;47.946;20.540;2023-12-20T08:08:32;4.27;;;3.03;;
67585;SDS011;55785;47.946;20.540;2023-12-20T08:10:57;4.63;;;3.77;;
67585;SDS011;55785;47.946;20.540;2023-12-20T08:13:22;3.43;;;2.70;;
67585;SDS011;55785;47.946;20.540;2023-12-20T08:15:48;3.73;;;2.37;;
67585;SDS011;55785;47.946;20.540;2023-12-20T08:18:13;4.23;;;3.10;;
67585;SDS011;55785;47.946;20.540;2023-12-20T08:20:38;5.00;;;2.53;;
67585;SDS011;55785;47.946;20.540;2023-12-20T08:23:04;5.77;;;3.33;;
67585;SDS011;55785;47.946;20.540;2023-12-20T08:25:29;7.07;;;2.47;;
67585;SDS011;55785;47.946;20.540;2023-12-20T08:27:54;3.50;;;2.73;;
67585;SDS011;55785;47.946;20.540;2023-12-20T08:30:20;5.30;;;3.20;;
67585;SDS011;55785;47.946;20.540;2023-12-20T08:32:45;6.03;;;3.37;;
67585;SDS011;55785;47.946;20.540;2023-12-20T08:35:11;4.93;;;3.80;;
67585;SDS011;55785;47.946;20.540;2023-12-20T08:37:36;8.03;;;4.83;;
67585;SDS011;55785;47.946;20.540;2023-12-20T08:40:01;8.30;;;4.20;;
67585;SDS011;55785;47.946;20.540;2023-12-20T08:42:27;3.77;;;2.63;;
67585;SDS011;55785;47.946;20.540;2023-12-20T08:44:52;4.87;;;3.23;;
67585;SDS011;55785;47.946;20.540;2023-12-20T08:47:18;4.07;;;2.97;;
67585;SDS011;55785;47.946;20.540;2023-12-20T08:49:43;8.73;;;5.10;;
67585;SDS011;55785;47.946;20.540;2023-12-20T08:52:08;8.27;;;5.00;;
67585;SDS011;55785;47.946;20.540;2023-12-20T08:54:34;4.27;;;3.30;;
67585;SDS011;55785;47.946;20.540;2023-12-20T08:56:59;8.53;;;4.30;;
67585;SDS011;55785;47.946;20.540;2023-12-20T08:59:24;4.87;;;3.83;;
67585;SDS011;55785;47.946;20.540;2023-12-20T09:01:50;4.47;;;3.70;;
67585;SDS011;55785;47.946;20.540;2023-12-20T09:04:15;15.60;;;7.23;;
67585;SDS011;55785;47.946;20.540;2023-12-20T09:06:40;10.27;;;4.60;;
67585;SDS011;55785;47.946;20.540;2023-12-20T09:09:06;4.87;;;3.90;;
67585;SDS011;55785;47.946;20.540;2023-12-20T09:11:31;7.77;;;4.63;;
67585;SDS011;55785;47.946;20.540;2023-12-20T09:13:56;10.47;;;4.50;;
67585;SDS011;55785;47.946;20.540;2023-12-20T09:16:22;5.47;;;4.27;;
67585;SDS011;55785;47.946;20.540;2023-12-20T09:18:47;5.90;;;2.93;;
67585;SDS011;55785;47.946;20.540;2023-12-20T09:21:12;10.13;;;4.63;;
67585;SDS011;55785;47.946;20.540;2023-12-20T09:23:38;6.47;;;4.57;;
67585;SDS011;55785;47.946;20.540;2023-12-20T09:26:03;7.53;;;3.47;;
67585;SDS011;55785;47.946;20.540;2023-12-20T09:28:29;9.60;;;3.47;;
67585;SDS011;55785;47.946;20.540;2023-12-20T09:30:54;4.90;;;3.27;;
67585;SDS011;55785;47.946;20.540;2023-12-20T09:33:19;6.23;;;3.23;;
67585;SDS011;55785;47.946;20.540;2023-12-20T09:35:45;6.33;;;3.93;;
67585;SDS011;55785;47.946;20.540;2023-12-20T09:38:10;8.77;;;4.90;;
67585;SDS011;55785;47.946;20.540;2023-12-20T09:40:36;4.83;;;3.17;;
67585;SDS011;55785;47.946;20.540;2023-12-20T09:43:08;6.37;;;4.63;;
67585;SDS011;55785;47.946;20.540;2023-12-20T09:45:36;13.83;;;7.53;;
67585;SDS011;55785;47.946;20.540;2023-12-20T09:48:03;8.40;;;3.87;;
67585;SDS011;55785;47.946;20.540;2023-12-20T09:50:30;6.50;;;4.13;;
67585;SDS011;55785;47.946;20.540;2023-12-20T09:52:55;6.07;;;3.70;;
67585;SDS011;55785;47.946;20.540;2023-12-20T09:55:22;6.87;;;4.43;;
67585;SDS011;55785;47.946;20.540;2023-12-20T09:57:50;11.60;;;4.70;;
67585;SDS011;55785;47.946;20.540;2023-12-20T10:00:16;20.50;;;6.83;;
67585;SDS011;55785;47.946;20.540;2023-12-20T10:03:03;8.57;;;5.50;;
67585;SDS011;55785;47.946;20.540;2023-12-20T10:07:54;4.80;;;2.35;;
67585;SDS011;55785;47.946;20.540;2023-12-20T10:10:20;7.20;;;4.27;;
67585;SDS011;55785;47.946;20.540;2023-12-20T10:15:46;3.90;;;2.47;;
67585;SDS011;55785;47.946;20.540;2023-12-20T10:18:11;4.90;;;3.03;;
67585;SDS011;55785;47.946;20.540;2023-12-20T10:20:38;3.27;;;2.13;;
67585;SDS011;55785;47.946;20.540;2023-12-20T10:23:05;2.53;;;2.33;;
67585;SDS011;55785;47.946;20.540;2023-12-20T10:25:31;4.40;;;3.43;;
67585;SDS011;55785;47.946;20.540;2023-12-20T10:28:12;4.90;;;3.43;;
67585;SDS011;55785;47.946;20.540;2023-12-20T10:30:44;3.23;;;2.83;;
67585;SDS011;55785;47.946;20.540;2023-12-20T10:33:10;6.20;;;3.30;;
67585;SDS011;55785;47.946;20.540;2023-12-20T10:35:35;5.07;;;3.37;;
67585;SDS011;55785;47.946;20.540;2023-12-20T10:38:05;6.40;;;2.97;;
67585;SDS011;55785;47.946;20.540;2023-12-20T10:40:33;6.13;;;3.87;;
67585;SDS011;55785;47.946;20.540;2023-12-20T10:42:59;5.20;;;3.10;;
67585;SDS011;55785;47.946;20.540;2023-12-20T10:45:26;11.60;;;5.73;;
67585;SDS011;55785;47.946;20.540;2023-12-20T10:47:51;6.77;;;5.23;;
67585;SDS011;55785;47.946;20.540;2023-12-20T10:50:18;6.53;;;4.00;;
67585;SDS011;55785;47.946;20.540;2023-12-20T10:52:44;7.10;;;5.37;;
67585;SDS011;55785;47.946;20.540;2023-12-20T10:55:11;6.57;;;4.63;;
67585;SDS011;55785;47.946;20.540;2023-12-20T10:57:37;6.77;;;3.23;;
67585;SDS011;55785;47.946;20.540;2023-12-20T11:00:03;9.17;;;4.80;;
67585;SDS011;55785;47.946;20.540;2023-12-20T11:02:32;5.93;;;3.33;;
67585;SDS011;55785;47.946;20.540;2023-12-20T11:05:01;6.90;;;4.47;;
67585;SDS011;55785;47.946;20.540;2023-12-20T11:07:43;4.47;;;3.50;;
67585;SDS011;55785;47.946;20.540;2023-12-20T11:10:22;4.22;;;3.22;;
67585;SDS011;55785;47.946;20.540;2023-12-20T11:15:15;5.27;;;3.70;;
67585;SDS011;55785;47.946;20.540;2023-12-20T11:17:42;8.33;;;4.57;;
67585;SDS011;55785;47.946;20.540;2023-12-20T11:20:10;9.97;;;4.10;;
67585;SDS011;55785;47.946;20.540;2023-12-20T11:22:35;9.10;;;4.83;;
67585;SDS011;55785;47.946;20.540;2023-12-20T11:25:05;9.23;;;4.27;;
67585;SDS011;55785;47.946;20.540;2023-12-20T11:27:32;8.50;;;4.20;;
67585;SDS011;55785;47.946;20.540;2023-12-20T11:29:58;4.07;;;2.93;;
67585;SDS011;55785;47.946;20.540;2023-12-20T11:34:50;10.80;;;5.13;;
67585;SDS011;55785;47.946;20.540;2023-12-20T11:37:16;6.87;;;4.23;;
67585;SDS011;55785;47.946;20.540;2023-12-20T11:39:42;4.20;;;3.40;;
67585;SDS011;55785;47.946;20.540;2023-12-20T11:42:08;7.33;;;5.03;;
67585;SDS011;55785;47.946;20.540;2023-12-20T11:44:36;7.17;;;5.07;;
67585;SDS011;55785;47.946;20.540;2023-12-20T11:47:02;6.13;;;4.23;;
67585;SDS011;55785;47.946;20.540;2023-12-20T11:49:27;6.60;;;4.40;;
67585;SDS011;55785;47.946;20.540;2023-12-20T11:51:52;8.57;;;5.37;;
67585;SDS011;55785;47.946;20.540;2023-12-20T11:54:18;7.43;;;3.83;;
67585;SDS011;55785;47.946;20.540;2023-12-20T11:56:43;7.90;;;4.83;;
67585;SDS011;55785;47.946;20.540;2023-12-20T11:59:09;11.80;;;6.13;;
67585;SDS011;55785;47.946;20.540;2023-12-20T12:01:34;14.73;;;9.23;;
67585;SDS011;55785;47.946;20.540;2023-12-20T12:04:03;17.30;;;10.00;;
67585;SDS011;55785;47.946;20.540;2023-12-20T12:06:32;17.93;;;10.37;;
67585;SDS011;55785;47.946;20.540;2023-12-20T12:08:57;10.07;;;6.33;;
67585;SDS011;55785;47.946;20.540;2023-12-20T12:11:23;7.30;;;5.07;;
67585;SDS011;55785;47.946;20.540;2023-12-20T12:13:48;10.43;;;5.47;;
67585;SDS011;55785;47.946;20.540;2023-12-20T12:16:17;16.10;;;9.03;;
67585;SDS011;55785;47.946;20.540;2023-12-20T12:18:43;11.23;;;7.77;;
67585;SDS011;55785;47.946;20.540;2023-12-20T12:21:08;11.50;;;7.20;;
67585;SDS011;55785;47.946;20.540;2023-12-20T12:23:34;18.10;;;11.60;;
67585;SDS011;55785;47.946;20.540;2023-12-20T12:25:59;14.10;;;7.47;;
67585;SDS011;55785;47.946;20.540;2023-12-20T12:28:27;20.60;;;8.60;;
67585;SDS011;55785;47.946;20.540;2023-12-20T12:30:59;10.37;;;5.70;;
67585;SDS011;55785;47.946;20.540;2023-12-20T12:33:27;11.07;;;6.80;;
67585;SDS011;55785;47.946;20.540;2023-12-20T12:35:53;12.77;;;7.20;;
67585;SDS011;55785;47.946;20.540;2023-12-20T12:38:22;13.10;;;7.53;;
67585;SDS011;55785;47.946;20.540;2023-12-20T12:40:49;15.37;;;7.30;;
67585;SDS011;55785;47.946;20.540;2023-12-20T12:43:15;12.93;;;6.77;;
67585;SDS011;55785;47.946;20.540;2023-12-20T12:45:40;10.57;;;7.53;;
67585;SDS011;55785;47.946;20.540;2023-12-20T12:48:06;17.60;;;7.27;;
67585;SDS011;55785;47.946;20.540;2023-12-20T12:50:32;7.43;;;5.30;;
67585;SDS011;55785;47.946;20.540;2023-12-20T12:52:57;8.27;;;6.70;;
67585;SDS011;55785;47.946;20.540;2023-12-20T12:55:22;8.30;;;5.73;;
67585;SDS011;55785;47.946;20.540;2023-12-20T12:57:48;13.20;;;7.37;;
67585;SDS011;55785;47.946;20.540;2023-12-20T13:00:13;9.23;;;6.33;;
67585;SDS011;55785;47.946;20.540;2023-12-20T13:02:39;8.93;;;6.13;;
67585;SDS011;55785;47.946;20.540;2023-12-20T13:05:04;10.13;;;6.17;;
67585;SDS011;55785;47.946;20.540;2023-12-20T13:07:30;9.73;;;5.80;;
67585;SDS011;55785;47.946;20.540;2023-12-20T13:09:55;11.43;;;5.40;;
67585;SDS011;55785;47.946;20.540;2023-12-20T13:12:21;8.27;;;4.00;;
67585;SDS011;55785;47.946;20.540;2023-12-20T13:14:46;8.57;;;5.93;;
67585;SDS011;55785;47.946;20.540;2023-12-20T13:17:12;8.33;;;5.40;;
67585;SDS011;55785;47.946;20.540;2023-12-20T13:19:37;8.70;;;5.27;;
67585;SDS011;55785;47.946;20.540;2023-12-20T13:22:03;8.73;;;4.47;;
67585;SDS011;55785;47.946;20.540;2023-12-20T13:24:28;7.27;;;4.97;;
67585;SDS011;55785;47.946;20.540;2023-12-20T13:26:54;8.13;;;5.30;;
67585;SDS011;55785;47.946;20.540;2023-12-20T13:29:19;8.33;;;4.40;;
67585;SDS011;55785;47.946;20.540;2023-12-20T13:31:44;5.37;;;4.43;;
67585;SDS011;55785;47.946;20.540;2023-12-20T13:34:10;11.73;;;7.27;;
67585;SDS011;55785;47.946;20.540;2023-12-20T13:36:35;9.97;;;5.97;;
67585;SDS011;55785;47.946;20.540;2023-12-20T13:39:00;12.13;;;6.57;;
67585;SDS011;55785;47.946;20.540;2023-12-20T13:41:26;11.93;;;7.83;;
67585;SDS011;55785;47.946;20.540;2023-12-20T13:43:51;11.23;;;6.23;;
67585;SDS011;55785;47.946;20.540;2023-12-20T13:46:16;8.93;;;5.77;;
67585;SDS011;55785;47.946;20.540;2023-12-20T13:48:42;7.53;;;4.80;;
67585;SDS011;55785;47.946;20.540;2023-12-20T13:51:07;6.60;;;5.00;;
67585;SDS011;55785;47.946;20.540;2023-12-20T13:53:32;9.07;;;6.40;;
67585;SDS011;55785;47.946;20.540;2023-12-20T13:55:58;10.23;;;5.97;;
67585;SDS011;55785;47.946;20.540;2023-12-20T13:58:23;8.83;;;6.20;;
67585;SDS011;55785;47.946;20.540;2023-12-20T14:00:49;11.57;;;5.17;;
67585;SDS011;55785;47.946;20.540;2023-12-20T14:03:14;8.50;;;5.60;;
67585;SDS011;55785;47.946;20.540;2023-12-20T14:05:39;8.63;;;5.03;;
67585;SDS011;55785;47.946;20.540;2023-12-20T14:08:05;15.73;;;7.07;;
67585;SDS011;55785;47.946;20.540;2023-12-20T14:10:31;8.93;;;5.43;;
67585;SDS011;55785;47.946;20.540;2023-12-20T14:12:56;8.30;;;4.20;;
67585;SDS011;55785;47.946;20.540;2023-12-20T14:15:21;9.53;;;5.20;;
67585;SDS011;55785;47.946;20.540;2023-12-20T14:17:47;11.83;;;5.07;;
67585;SDS011;55785;47.946;20.540;2023-12-20T14:20:12;5.27;;;4.60;;
67585;SDS011;55785;47.946;20.540;2023-12-20T14:22:38;6.37;;;4.77;;
67585;SDS011;55785;47.946;20.540;2023-12-20T14:25:03;7.30;;;3.93;;
67585;SDS011;55785;47.946;20.540;2023-12-20T14:27:29;8.43;;;4.70;;
67585;SDS011;55785;47.946;20.540;2023-12-20T14:29:54;11.97;;;7.37;;
67585;SDS011;55785;47.946;20.540;2023-12-20T14:32:20;12.20;;;7.87;;
67585;SDS011;55785;47.946;20.540;2023-12-20T14:34:45;9.17;;;4.80;;